Time;durP1;ratioP1;P1;durP2;ratioP2;P2;SDS_P1;SDS_P2;PMS_P1;PMS_P2;Temp;Humidity;BMP_temperature;BMP_pressure;BME280_temperature;BME280_humidity;BME280_pressure;Samples;Min_cycle;Max_cycle;Signal;HPM_P1;HPM_P2
2022/04/10 00:00:39;;;;;;;13.05;5.88;;;;;;;6.33;57.21;101777.00;5074982;28;20467;-65
2022/04/10 00:03:07;;;;;;;10.13;5.80;;;;;;;6.30;57.69;101778.25;5081751;28;20064;-65
2022/04/10 00:05:32;;;;;;;11.68;6.05;;;;;;;6.29;57.35;101773.78;5088931;28;20029;-64
2022/04/10 00:07:57;;;;;;;9.95;6.03;;;;;;;6.32;57.74;101780.78;5072218;28;20526;-64
2022/04/10 00:10:23;;;;;;;14.40;6.43;;;;;;;6.27;57.89;101772.28;5071862;28;20024;-65
2022/04/10 00:12:48;;;;;;;13.30;6.15;;;;;;;6.29;57.70;101772.94;5092339;28;20520;-65
2022/04/10 00:15:14;;;;;;;14.20;6.85;;;;;;;6.32;57.65;101778.03;5080711;28;20083;-65
2022/04/10 00:17:40;;;;;;;13.60;5.90;;;;;;;6.24;57.67;101772.69;5071663;28;20476;-65
2022/04/10 00:20:06;;;;;;;10.27;6.68;;;;;;;6.21;57.81;101773.09;5075426;28;20468;-65
2022/04/10 00:22:39;;;;;;;12.85;6.43;;;;;;;6.22;57.87;101772.06;5072834;28;20028;-65
2022/04/10 00:25:05;;;;;;;10.45;6.18;;;;;;;6.20;57.92;101771.38;5083159;28;20028;-64
2022/04/10 00:27:30;;;;;;;12.27;6.75;;;;;;;6.18;58.20;101768.84;5085352;28;20035;-65
2022/04/10 00:29:56;;;;;;;16.27;7.35;;;;;;;6.22;57.99;101772.06;5087858;28;20439;-65
2022/04/10 00:32:26;;;;;;;9.43;6.47;;;;;;;6.17;58.32;101778.19;5091334;28;20044;-65
2022/04/10 00:34:51;;;;;;;19.85;6.72;;;;;;;6.15;58.33;101775.59;5089312;28;20071;-65
2022/04/10 00:37:17;;;;;;;14.63;6.97;;;;;;;6.16;58.09;101770.94;5092083;28;20472;-65
2022/04/10 00:39:42;;;;;;;11.02;6.80;;;;;;;6.18;58.40;101762.47;5089724;28;20028;-65
2022/04/10 00:42:08;;;;;;;12.73;7.38;;;;;;;6.15;58.40;101763.72;5092540;28;20028;-65
2022/04/10 00:44:34;;;;;;;12.85;7.25;;;;;;;6.20;57.97;101765.88;5089332;28;20023;-67
2022/04/10 00:46:59;;;;;;;15.00;7.55;;;;;;;6.16;58.34;101759.91;5091106;28;20048;-65
2022/04/10 00:49:25;;;;;;;13.32;6.93;;;;;;;6.14;57.93;101757.38;5089866;28;20074;-65
2022/04/10 00:51:52;;;;;;;15.23;7.75;;;;;;;6.12;58.70;101755.84;5083051;28;20039;-65
2022/04/10 00:54:21;;;;;;;16.13;8.43;;;;;;;6.11;58.42;101762.44;5074263;28;20028;-65
2022/04/10 00:56:48;;;;;;;13.65;7.85;;;;;;;6.08;58.70;101757.31;5083867;28;20021;-65
2022/04/10 00:59:14;;;;;;;12.00;7.88;;;;;;;6.11;58.50;101762.44;5075993;28;20033;-64
2022/04/10 01:01:44;;;;;;;14.73;8.43;;;;;;;6.11;59.04;101756.91;5090118;28;20024;-64
2022/04/10 01:04:11;;;;;;;13.40;7.55;;;;;;;6.10;58.57;101763.50;5089607;28;20024;-65
2022/04/10 01:06:37;;;;;;;12.82;8.15;;;;;;;6.07;58.72;101761.97;5091364;28;20387;-65
2022/04/10 01:09:06;;;;;;;14.85;8.30;;;;;;;6.04;58.91;101761.53;5095269;28;20492;-65
2022/04/10 01:11:36;;;;;;;15.07;8.38;;;;;;;6.02;59.21;101764.50;5088356;28;20028;-65
2022/04/10 01:14:04;;;;;;;16.85;8.27;;;;;;;6.01;59.12;101762.78;5093166;28;20161;-65
2022/04/10 01:16:31;;;;;;;16.73;8.50;;;;;;;5.98;59.37;101763.19;5077058;28;20106;-65
2022/04/10 01:18:57;;;;;;;13.57;7.97;;;;;;;5.98;59.73;101760.44;5075042;28;20486;-65
2022/04/10 01:21:25;;;;;;;13.98;8.48;;;;;;;6.03;59.27;101760.69;5087631;28;20398;-65
2022/04/10 01:23:52;;;;;;;12.45;8.45;;;;;;;6.00;59.73;101754.72;5090878;28;20035;-65
2022/04/10 01:26:17;;;;;;;19.40;8.90;;;;;;;6.04;59.33;101762.38;5082034;28;20502;-65
2022/04/10 01:29:14;;;;;;;15.82;8.50;;;;;;;6.14;58.94;101767.53;5095259;28;20024;-65
2022/04/10 01:31:43;;;;;;;16.33;8.38;;;;;;;6.04;59.73;101767.03;5048979;28;20040;-65
2022/04/10 01:34:10;;;;;;;18.75;8.95;;;;;;;6.04;59.84;101765.13;5074741;28;20030;-65
2022/04/10 01:36:37;;;;;;;15.75;8.63;;;;;;;6.03;59.83;101771.69;5076559;28;20475;-65
2022/04/10 01:39:06;;;;;;;18.33;9.02;;;;;;;6.00;59.85;101768.50;5087116;28;20030;-65
2022/04/10 01:41:32;;;;;;;12.98;9.02;;;;;;;6.00;60.03;101761.06;5075708;28;20079;-65
2022/04/10 01:43:59;;;;;;;13.05;8.50;;;;;;;6.02;60.10;101758.13;5090022;28;20059;-64
2022/04/10 01:46:26;;;;;;;14.20;8.80;;;;;;;5.98;60.22;101763.19;5082185;28;20086;-65
2022/04/10 01:48:52;;;;;;;13.82;8.75;;;;;;;5.96;60.10;101765.28;5075497;28;20032;-65
2022/04/10 01:51:17;;;;;;;13.85;8.80;;;;;;;5.98;60.13;101773.38;5082234;28;20077;-65
2022/04/10 01:53:43;;;;;;;15.05;9.13;;;;;;;5.98;60.03;101773.38;5089242;28;20440;-65
2022/04/10 01:56:09;;;;;;;15.30;8.90;;;;;;;5.94;60.03;101764.66;5094730;28;20016;-65
2022/04/10 01:58:37;;;;;;;18.27;9.48;;;;;;;5.95;60.37;101777.38;5082735;28;20049;-65
2022/04/10 02:01:04;;;;;;;16.23;9.48;;;;;;;5.94;60.08;101781.19;5078884;28;20032;-65
2022/04/10 02:03:29;;;;;;;16.25;9.50;;;;;;;5.95;60.04;101782.88;5087663;28;20095;-63
2022/04/10 02:05:58;;;;;;;16.67;9.20;;;;;;;5.96;59.53;101792.84;5094765;28;20099;-63
2022/04/10 02:08:27;;;;;;;16.92;10.25;;;;;;;5.89;60.17;101784.50;5074979;28;20032;-63
2022/04/10 02:10:52;;;;;;;11.48;9.43;;;;;;;5.89;60.17;101784.50;5074292;28;20020;-63
2022/04/10 02:13:19;;;;;;;13.27;10.20;;;;;;;5.91;60.12;101789.81;5075683;28;20476;-63
2022/04/10 02:15:44;;;;;;;17.02;9.27;;;;;;;5.88;60.24;101780.03;5073940;28;20538;-64
2022/04/10 02:18:10;;;;;;;13.20;9.55;;;;;;;5.84;59.64;101780.63;5077200;28;20119;-63
2022/04/10 02:20:35;;;;;;;13.75;9.35;;;;;;;5.84;59.92;101784.22;5092661;28;20024;-63
2022/04/10 02:23:00;;;;;;;16.05;9.15;;;;;;;5.84;59.85;101783.38;5092322;28;20497;-63
2022/04/10 02:25:26;;;;;;;14.52;9.80;;;;;;;5.83;59.54;101778.94;5093060;28;20383;-63
2022/04/10 02:27:51;;;;;;;15.25;9.82;;;;;;;5.78;59.65;101785.03;5078049;28;20036;-63
2022/04/10 02:30:18;;;;;;;18.77;9.85;;;;;;;5.71;59.67;101783.28;5073097;28;20044;-63
2022/04/10 02:32:44;;;;;;;15.40;10.13;;;;;;;5.65;59.82;101783.00;5074199;28;20032;-63
2022/04/10 02:35:09;;;;;;;17.30;9.75;;;;;;;5.59;60.05;101785.72;5076812;28;20047;-64
2022/04/10 02:37:35;;;;;;;13.65;9.50;;;;;;;5.61;59.84;101781.69;5087274;28;20104;-65
2022/04/10 02:40:01;;;;;;;12.13;9.15;;;;;;;5.56;59.82;101784.19;5091123;28;20145;-64
2022/04/10 02:42:29;;;;;;;12.65;9.15;;;;;;;5.50;60.04;101778.63;5073379;28;20129;-64
2022/04/10 02:44:54;;;;;;;11.38;9.05;;;;;;;5.50;59.75;101787.75;5072974;28;20154;-64
2022/04/10 02:47:20;;;;;;;16.35;9.25;;;;;;;5.51;59.76;101792.22;5080692;28;20164;-65
2022/04/10 02:49:45;;;;;;;14.95;9.85;;;;;;;5.47;59.60;101801.91;5073520;28;20021;-64
2022/04/10 02:52:11;;;;;;;14.23;9.57;;;;;;;5.45;60.03;101811.41;5088122;28;20423;-64
2022/04/10 02:54:36;;;;;;;16.15;9.70;;;;;;;5.44;59.94;101801.44;5091645;28;20023;-64
2022/04/10 02:57:01;;;;;;;16.70;9.45;;;;;;;5.41;59.68;101808.19;5083139;28;20107;-64
2022/04/10 02:59:27;;;;;;;13.82;9.40;;;;;;;5.35;59.73;101807.09;5089734;28;20024;-64
2022/04/10 03:01:52;;;;;;;16.02;9.85;;;;;;;5.33;59.79;101811.91;5081985;28;20040;-64
2022/04/10 03:04:20;;;;;;;13.15;9.18;;;;;;;5.33;59.67;101802.81;5093733;28;20028;-64
2022/04/10 03:06:54;;;;;;;17.30;9.88;;;;;;;5.25;59.72;101816.69;5092791;28;20039;-64
2022/04/10 03:09:19;;;;;;;16.38;9.80;;;;;;;5.28;59.62;101810.81;5091067;28;20450;-64
2022/04/10 03:11:45;;;;;;;13.60;9.98;;;;;;;5.26;59.45;101810.97;5082455;28;20151;-64
2022/04/10 03:14:10;;;;;;;11.90;9.13;;;;;;;5.27;59.64;101806.34;5085846;28;20036;-64
2022/04/10 03:16:35;;;;;;;14.00;9.68;;;;;;;5.25;59.74;101816.69;5093290;28;20024;-64
2022/04/10 03:19:01;;;;;;;13.38;9.45;;;;;;;5.23;59.61;101814.16;5079659;28;20039;-64
2022/04/10 03:21:26;;;;;;;16.55;10.05;;;;;;;5.18;59.80;101820.22;5074027;28;20064;-64
2022/04/10 03:23:51;;;;;;;13.45;9.30;;;;;;;5.15;59.66;101808.75;5073183;28;20028;-64
2022/04/10 03:26:19;;;;;;;16.65;10.10;;;;;;;5.12;59.28;101815.50;5072406;28;20395;-64
2022/04/10 03:28:45;;;;;;;12.35;9.10;;;;;;;5.12;59.68;101815.50;5086435;28;20117;-64
2022/04/10 03:31:10;;;;;;;15.63;9.55;;;;;;;5.09;59.48;101813.13;5091894;28;20515;-64
2022/04/10 03:33:35;;;;;;;14.60;9.25;;;;;;;5.08;59.47;101819.69;5105932;27;20024;-64
2022/04/10 03:36:01;;;;;;;12.45;9.75;;;;;;;5.03;59.36;101827.69;5085036;28;20032;-64
2022/04/10 03:38:26;;;;;;;17.40;10.00;;;;;;;5.01;59.81;101827.00;5093048;28;20020;-64
2022/04/10 03:40:51;;;;;;;13.15;9.60;;;;;;;5.00;59.31;101821.69;5090777;28;20035;-64
2022/04/10 03:43:16;;;;;;;12.43;10.00;;;;;;;4.96;59.92;101832.25;5075636;28;20036;-64
2022/04/10 03:45:42;;;;;;;13.90;9.20;;;;;;;4.90;59.48;101825.59;5088187;28;20044;-64
2022/04/10 03:48:08;;;;;;;13.10;9.20;;;;;;;4.91;59.41;101826.44;5092767;28;20383;-64
2022/04/10 03:50:34;;;;;;;12.80;9.55;;;;;;;4.87;59.32;101830.63;5086809;28;20029;-64
2022/04/10 03:53:03;;;;;;;12.85;8.52;;;;;;;4.88;59.69;101835.09;5078224;28;20028;-64
2022/04/10 03:55:30;;;;;;;11.43;9.07;;;;;;;4.84;59.93;101831.03;5079855;28;20024;-64
2022/04/10 03:57:55;;;;;;;13.02;9.20;;;;;;;4.84;59.91;101831.03;5071521;28;20083;-64
2022/04/10 04:00:20;;;;;;;11.10;8.77;;;;;;;4.85;59.61;101838.22;5071790;28;20059;-64
2022/04/10 04:02:46;;;;;;;13.95;9.13;;;;;;;4.86;60.07;101835.28;5076226;28;20097;-64
2022/04/10 04:05:11;;;;;;;12.68;9.63;;;;;;;4.84;60.06;101831.03;5085795;28;20122;-64
2022/04/10 04:07:38;;;;;;;14.90;9.13;;;;;;;4.85;60.65;101838.22;5080811;28;20032;-64
2022/04/10 04:10:05;;;;;;;13.13;9.40;;;;;;;4.83;60.51;101838.41;5070707;28;20043;-64
2022/04/10 04:12:30;;;;;;;16.27;8.82;;;;;;;4.86;60.75;101842.66;5084325;28;20032;-63
2022/04/10 04:14:55;;;;;;;10.63;8.98;;;;;;;4.84;60.40;101842.88;5071650;28;20472;-64
2022/04/10 04:17:21;;;;;;;11.65;8.60;;;;;;;4.84;60.87;101839.28;5072550;28;20028;-63
2022/04/10 04:19:49;;;;;;;13.60;8.35;;;;;;;4.86;60.78;101850.94;5082867;28;20040;-64
2022/04/10 04:22:15;;;;;;;10.77;8.48;;;;;;;4.81;60.89;101848.75;5072196;28;20029;-64
2022/04/10 04:24:41;;;;;;;15.10;8.90;;;;;;;4.84;61.18;101845.63;5082835;28;20471;-63
2022/04/10 04:27:06;;;;;;;12.90;8.43;;;;;;;4.82;61.68;101849.59;5085978;28;20115;-63
2022/04/10 04:29:32;;;;;;;14.98;8.07;;;;;;;4.85;61.02;101855.56;5079456;28;20031;-64
2022/04/10 04:31:57;;;;;;;13.10;8.60;;;;;;;4.81;61.05;101850.66;5079191;28;20031;-63
2022/04/10 04:34:23;;;;;;;11.52;8.63;;;;;;;4.81;61.27;101851.50;5091773;28;20402;-64
2022/04/10 04:36:48;;;;;;;11.15;8.38;;;;;;;4.78;61.32;101848.28;5089190;28;20039;-63
2022/04/10 04:39:14;;;;;;;11.88;8.73;;;;;;;4.83;61.33;101854.06;5086443;28;20119;-65
2022/04/10 04:41:39;;;;;;;13.55;8.00;;;;;;;4.79;61.11;101855.47;5080331;28;20032;-64
2022/04/10 04:44:07;;;;;;;14.18;8.77;;;;;;;4.76;61.28;101850.38;5078171;28;20024;-64
2022/04/10 04:46:32;;;;;;;12.35;8.68;;;;;;;4.77;60.81;101847.44;5079867;28;20029;-64
2022/04/10 04:48:58;;;;;;;13.43;8.98;;;;;;;4.74;61.11;101855.22;5090062;28;20074;-64
2022/04/10 04:51:26;;;;;;;11.07;8.77;;;;;;;4.74;61.21;101857.97;5084399;28;20043;-64
2022/04/10 04:53:51;;;;;;;10.90;8.05;;;;;;;4.75;60.98;101851.41;5091580;28;20020;-65
2022/04/10 04:56:17;;;;;;;12.50;9.00;;;;;;;4.72;60.85;101860.06;5088829;28;20024;-64
2022/04/10 04:58:43;;;;;;;10.00;7.85;;;;;;;4.70;61.06;101862.13;5085643;28;20052;-64
2022/04/10 05:01:08;;;;;;;15.95;8.20;;;;;;;4.71;60.53;101858.31;5082576;28;20759;-64
2022/04/10 05:03:34;;;;;;;12.93;8.35;;;;;;;4.67;60.91;101863.34;5090751;28;20024;-64
2022/04/10 05:05:59;;;;;;;10.63;8.13;;;;;;;4.64;60.51;101863.75;5089995;28;20117;-64
2022/04/10 05:08:24;;;;;;;14.80;8.55;;;;;;;4.59;60.67;101867.03;5071760;28;20041;-64
2022/04/10 05:10:56;;;;;;;14.95;8.80;;;;;;;4.61;60.93;101875.13;5084421;28;20039;-64
2022/04/10 05:13:21;;;;;;;15.50;9.48;;;;;;;4.56;61.22;101878.44;5091656;28;20081;-64
2022/04/10 05:15:46;;;;;;;16.77;9.93;;;;;;;4.56;61.01;101878.44;5085633;28;20044;-64
2022/04/10 05:18:13;;;;;;;20.17;11.05;;;;;;;4.57;61.06;101880.16;5072625;28;20403;-64
2022/04/10 05:20:39;;;;;;;23.50;11.05;;;;;;;4.56;60.94;101881.19;5080159;28;20059;-64
2022/04/10 05:23:04;;;;;;;18.48;9.98;;;;;;;4.56;61.53;101886.69;5071107;28;20064;-63
2022/04/10 05:25:29;;;;;;;14.52;8.88;;;;;;;4.58;61.61;101892.00;5075023;28;20055;-64
2022/04/10 05:27:55;;;;;;;17.65;9.70;;;;;;;4.61;61.51;101884.22;5086388;28;20634;-63
2022/04/10 05:30:20;;;;;;;20.30;10.55;;;;;;;4.61;61.78;101889.72;5072404;28;20021;-63
2022/04/10 05:32:45;;;;;;;18.85;8.60;;;;;;;4.65;62.19;101896.56;5078090;28;20498;-64
2022/04/10 05:35:12;;;;;;;14.43;8.18;;;;;;;4.66;62.11;101900.16;5090972;28;20505;-63
2022/04/10 05:37:37;;;;;;;15.02;8.27;;;;;;;4.71;62.36;101903.19;5083509;28;20024;-63
2022/04/10 05:40:04;;;;;;;11.45;7.63;;;;;;;4.74;62.41;101904.72;5071032;28;20115;-64
2022/04/10 05:42:29;;;;;;;13.13;7.15;;;;;;;4.77;62.59;101907.09;5071305;28;20037;-64
2022/04/10 05:45:06;;;;;;;12.45;7.05;;;;;;;4.81;62.55;101908.41;5092503;28;20043;-64
2022/04/10 05:47:32;;;;;;;11.55;6.88;;;;;;;4.81;62.54;101911.16;5091523;28;20059;-64
2022/04/10 05:50:00;;;;;;;12.93;6.70;;;;;;;4.87;62.70;101915.91;5094531;28;20717;-64
2022/04/10 05:52:25;;;;;;;9.82;6.65;;;;;;;4.95;62.53;101923.19;5092645;28;20024;-63
2022/04/10 05:54:50;;;;;;;11.48;6.70;;;;;;;4.93;62.78;101920.66;5084584;28;20471;-64
2022/04/10 05:57:16;;;;;;;10.23;6.32;;;;;;;5.03;62.13;101920.34;5075688;28;20056;-63
2022/04/10 05:59:41;;;;;;;10.40;6.75;;;;;;;5.04;62.91;101922.09;5078640;28;20509;-63
2022/04/10 06:02:06;;;;;;;13.55;7.15;;;;;;;5.09;62.51;101925.09;5090579;28;20072;-63
2022/04/10 06:04:32;;;;;;;13.10;6.95;;;;;;;5.12;62.91;101933.84;5090803;28;20020;-63
2022/04/10 06:06:58;;;;;;;11.25;6.95;;;;;;;5.19;62.74;101939.44;5092546;28;20027;-63
2022/04/10 06:09:29;;;;;;;13.20;6.95;;;;;;;5.26;62.45;101945.00;5087829;28;20452;-63
2022/04/10 06:11:54;;;;;;;12.73;7.10;;;;;;;5.34;62.66;101942.16;5080887;28;20445;-63
2022/04/10 06:14:19;;;;;;;14.77;7.35;;;;;;;5.39;62.44;101939.69;5080322;28;20024;-63
2022/04/10 06:16:45;;;;;;;13.57;8.45;;;;;;;5.45;62.41;101949.94;5080150;28;20383;-64
2022/04/10 06:19:10;;;;;;;14.82;8.00;;;;;;;5.50;62.46;101955.72;5079612;28;20029;-62
2022/04/10 06:21:35;;;;;;;13.95;8.32;;;;;;;5.59;62.40;101957.31;5085837;28;20031;-62
2022/04/10 06:24:01;;;;;;;11.75;7.50;;;;;;;5.77;64.87;101961.53;5087437;28;20130;-62
2022/04/10 06:26:26;;;;;;;16.38;8.35;;;;;;;5.79;62.54;101959.47;5082068;28;20110;-62
2022/04/10 06:28:53;;;;;;;12.95;7.13;;;;;;;5.89;62.34;101962.72;5073768;28;20043;-62
2022/04/10 06:31:21;;;;;;;16.52;7.07;;;;;;;5.97;61.98;101965.38;5092957;28;20028;-63
2022/04/10 06:33:46;;;;;;;13.00;7.78;;;;;;;6.02;61.72;101968.44;5085908;28;20060;-63
2022/04/10 06:36:11;;;;;;;14.18;7.13;;;;;;;6.20;62.98;101970.72;5087755;28;20109;-62
2022/04/10 06:38:37;;;;;;;12.13;7.75;;;;;;;6.32;61.45;101968.28;5088858;28;20035;-63
2022/04/10 06:41:02;;;;;;;13.90;7.18;;;;;;;6.34;61.39;101982.75;5095563;28;20036;-61
2022/04/10 06:43:27;;;;;;;9.02;6.70;;;;;;;6.44;61.43;101976.88;5081230;28;20446;-61
2022/04/10 06:45:55;;;;;;;11.82;7.50;;;;;;;6.48;61.15;101968.00;5079048;28;20039;-62
2022/04/10 06:48:21;;;;;;;9.30;6.90;;;;;;;6.58;60.91;101979.56;5081920;28;20071;-62
2022/04/10 06:50:46;;;;;;;12.23;7.10;;;;;;;6.66;60.78;101977.72;5077461;28;20048;-64
2022/04/10 06:53:14;;;;;;;11.43;7.18;;;;;;;6.77;60.78;101986.31;5091076;28;20031;-64
2022/04/10 06:55:39;;;;;;;13.85;7.85;;;;;;;6.84;60.84;101987.22;5085721;28;20041;-64
2022/04/10 06:58:05;;;;;;;16.02;8.00;;;;;;;6.94;60.26;101988.75;5087377;28;20052;-63
2022/04/10 07:00:31;;;;;;;12.20;8.02;;;;;;;6.94;60.51;101978.56;5084234;28;20086;-63
2022/04/10 07:02:57;;;;;;;12.95;7.90;;;;;;;7.05;60.70;101991.81;5076429;28;20039;-64
2022/04/10 07:05:24;;;;;;;14.82;6.97;;;;;;;7.16;60.79;101986.78;5079058;28;20032;-63
2022/04/10 07:07:49;;;;;;;11.02;7.43;;;;;;;7.25;60.09;101986.41;5078219;28;20024;-63
2022/04/10 07:10:15;;;;;;;12.55;7.18;;;;;;;7.34;60.29;101984.34;5087717;28;20474;-64
2022/04/10 07:12:40;;;;;;;10.23;7.32;;;;;;;7.43;59.95;101990.53;5092325;28;20074;-64
2022/04/10 07:15:09;;;;;;;9.80;6.60;;;;;;;7.46;59.90;101995.66;5106421;28;20573;-64
2022/04/10 07:17:34;;;;;;;9.38;6.35;;;;;;;7.57;59.51;102004.22;5110006;28;20034;-64
2022/04/10 07:19:59;;;;;;;12.48;7.15;;;;;;;7.65;58.93;101994.91;5097140;28;20138;-64
2022/04/10 07:25:08;;;;;;;12.38;7.47;;;;;;;7.84;59.70;102004.34;5096976;28;20058;-62
2022/04/10 07:27:37;;;;;;;11.27;8.15;;;;;;;7.93;59.49;101994.78;5098182;28;20478;-63
2022/04/10 07:30:03;;;;;;;6.22;4.30;;;;;;;8.81;69.90;101994.75;5087457;28;20042;-63
2022/04/10 07:32:31;;;;;;;16.33;7.45;;;;;;;9.21;59.11;101992.78;5096768;28;20079;-62
2022/04/10 07:35:00;;;;;;;9.63;7.05;;;;;;;9.24;56.72;101997.91;5099628;28;20024;-62
2022/04/10 07:37:26;;;;;;;11.77;7.22;;;;;;;9.20;56.43;102004.09;5099679;28;20016;-63
2022/04/10 07:39:51;;;;;;;15.05;7.32;;;;;;;9.15;56.90;102001.09;5083611;28;20049;-63
2022/04/10 07:42:16;;;;;;;15.20;7.78;;;;;;;9.14;56.57;102008.56;5094773;28;20122;-62
2022/04/10 07:44:42;;;;;;;11.80;6.47;;;;;;;9.06;56.54;102017.09;5087825;28;20029;-63
2022/04/10 07:47:25;;;;;;;11.35;6.45;;;;;;;9.08;56.32;102013.06;5083034;28;20048;-62
2022/04/10 07:49:51;;;;;;;9.82;5.10;;;;;;;9.14;55.89;102024.31;5080243;28;20042;-62
2022/04/10 07:52:20;;;;;;;9.52;5.35;;;;;;;9.20;56.33;102020.72;5081726;28;20028;-61
2022/04/10 07:54:45;;;;;;;11.90;4.97;;;;;;;9.26;55.66;102025.38;5086680;28;20031;-62
2022/04/10 07:57:11;;;;;;;11.32;4.88;;;;;;;9.34;55.46;102033.44;5080453;28;20487;-62
2022/04/10 07:59:36;;;;;;;7.57;4.90;;;;;;;9.41;54.90;102034.28;5082573;28;20108;-62
2022/04/10 08:02:02;;;;;;;9.98;4.90;;;;;;;9.47;54.47;102035.34;5083790;28;20028;-62
2022/04/10 08:04:28;;;;;;;10.25;4.90;;;;;;;9.55;54.67;102035.97;5084965;28;20025;-62
2022/04/10 08:06:53;;;;;;;8.70;4.88;;;;;;;9.67;54.47;102041.69;5078819;28;20019;-63
2022/04/10 08:09:19;;;;;;;10.05;4.95;;;;;;;9.71;54.45;102037.41;5090852;28;20063;-62
2022/04/10 08:11:45;;;;;;;10.32;4.80;;;;;;;9.75;53.95;102043.38;5080034;28;20055;-63
2022/04/10 08:14:10;;;;;;;8.70;4.38;;;;;;;9.82;53.68;102049.72;5080143;28;20028;-64
2022/04/10 08:16:35;;;;;;;10.65;4.68;;;;;;;9.90;53.71;102049.47;5084216;28;20035;-63
2022/04/10 08:19:00;;;;;;;9.93;4.70;;;;;;;10.02;53.24;102052.41;5088672;28;20514;-63
2022/04/10 08:21:26;;;;;;;8.73;4.15;;;;;;;10.05;52.52;102050.06;5083840;28;20135;-63
2022/04/10 08:23:54;;;;;;;8.38;4.25;;;;;;;10.05;52.23;102052.81;5085192;28;20028;-62
2022/04/10 08:26:19;;;;;;;8.48;3.40;;;;;;;10.03;51.88;102051.38;5089981;28;20031;-64
2022/04/10 08:28:44;;;;;;;11.02;4.05;;;;;;;10.09;51.43;102054.09;5091161;28;20114;-63
2022/04/10 08:31:10;;;;;;;7.50;2.92;;;;;;;10.12;50.88;102052.81;5091205;28;20036;-65
2022/04/10 08:33:35;;;;;;;10.25;3.28;;;;;;;10.13;50.67;102051.72;5080202;28;20032;-62
2022/04/10 08:36:00;;;;;;;8.50;2.58;;;;;;;10.22;50.21;102046.81;5087869;28;20074;-62
2022/04/10 08:38:25;;;;;;;9.18;3.50;;;;;;;10.18;50.67;102060.25;5086284;28;20030;-64
2022/04/10 08:40:57;;;;;;;5.28;3.15;;;;;;;10.07;50.38;102059.03;5087973;28;20378;-66
2022/04/10 08:43:28;;;;;;;6.65;2.47;;;;;;;9.96;49.40;102054.16;5079265;28;20059;-65
2022/04/10 08:45:58;;;;;;;7.18;2.40;;;;;;;9.79;50.14;102064.06;5079127;28;20093;-66
2022/04/10 08:48:27;;;;;;;6.80;2.60;;;;;;;9.71;49.98;102064.28;5089182;28;20425;-65
2022/04/10 08:50:57;;;;;;;4.43;2.40;;;;;;;9.59;49.83;102064.13;5076267;28;20039;-65
2022/04/10 08:53:25;;;;;;;7.00;2.72;;;;;;;9.51;50.56;102078.19;5079036;28;20040;-65
2022/04/10 08:55:50;;;;;;;7.38;3.03;;;;;;;9.43;51.61;102083.94;5089330;28;20474;-65
2022/04/10 08:58:21;;;;;;;10.18;3.58;;;;;;;9.38;52.69;102078.22;5081871;28;20459;-64
2022/04/10 09:00:46;;;;;;;7.90;3.10;;;;;;;9.32;53.15;102078.00;5085282;28;20024;-62
2022/04/10 09:03:12;;;;;;;11.85;3.35;;;;;;;9.28;52.70;102081.44;5080454;28;20390;-60
2022/04/10 09:05:37;;;;;;;8.63;3.10;;;;;;;9.29;53.09;102080.34;5087079;28;20070;-62
2022/04/10 09:08:18;;;;;;;10.05;3.13;;;;;;;9.32;52.83;102079.94;5089151;28;20055;-63
2022/04/10 09:10:59;;;;;;;8.05;3.15;;;;;;;9.33;53.20;102084.41;5089607;28;20024;-62
2022/04/10 09:13:51;;;;;;;6.68;3.17;;;;;;;9.31;53.32;102090.16;5083398;28;20443;-62
2022/04/10 09:16:18;;;;;;;10.68;3.33;;;;;;;9.48;53.09;102086.94;5083229;28;20036;-63
2022/04/10 09:19:02;;;;;;;6.43;2.90;;;;;;;9.72;53.14;102086.25;5071403;28;20025;-63
2022/04/10 09:21:46;;;;;;;7.93;2.92;;;;;;;9.94;52.50;102081.28;5081091;28;20059;-62
2022/04/10 09:24:13;;;;;;;8.48;3.45;;;;;;;10.08;52.15;102080.13;5092760;28;20132;-62
2022/04/10 09:26:52;;;;;;;9.50;3.30;;;;;;;10.18;50.48;102081.59;5075505;28;20066;-62
2022/04/10 09:29:22;;;;;;;6.30;2.92;;;;;;;10.35;50.64;102080.06;5094676;28;20048;-64
2022/04/10 09:31:49;;;;;;;9.07;2.97;;;;;;;10.50;50.15;102077.84;5081360;28;20028;-64
2022/04/10 09:34:19;;;;;;;7.35;3.00;;;;;;;10.67;48.55;102086.47;5074194;28;20028;-63
2022/04/10 09:36:47;;;;;;;4.35;2.33;;;;;;;10.68;47.73;102079.00;5073829;28;20021;-62
2022/04/10 09:39:44;;;;;;;7.38;2.85;;;;;;;10.61;47.63;102075.41;5078192;28;20118;-62
2022/04/10 09:42:14;;;;;;;4.93;2.50;;;;;;;10.53;47.75;102080.16;5073551;28;20040;-62
2022/04/10 09:44:40;;;;;;;8.32;2.42;;;;;;;10.60;46.56;102077.31;5074514;28;20036;-63
2022/04/10 09:47:09;;;;;;;6.32;2.42;;;;;;;10.76;45.78;102075.94;5081933;28;20024;-63
2022/04/10 09:49:36;;;;;;;5.85;2.72;;;;;;;10.95;46.32;102072.16;5083999;28;20493;-63
2022/04/10 09:52:05;;;;;;;8.02;2.50;;;;;;;11.06;45.92;102079.78;5077668;28;20028;-62
2022/04/10 09:54:35;;;;;;;3.83;2.17;;;;;;;11.22;45.69;102072.78;5092032;28;20036;-63
2022/04/10 09:57:05;;;;;;;5.53;2.47;;;;;;;11.37;45.53;102066.03;5086428;28;20088;-63
2022/04/10 09:59:36;;;;;;;6.30;2.47;;;;;;;11.46;46.11;102076.63;5080836;28;20086;-62
2022/04/10 10:02:04;;;;;;;4.53;2.30;;;;;;;11.49;43.83;102069.75;5086880;28;20039;-64
2022/04/10 10:04:33;;;;;;;6.40;2.05;;;;;;;11.58;43.75;102068.38;5095694;28;20035;-64
2022/04/10 10:06:58;;;;;;;5.88;2.30;;;;;;;11.41;43.56;102070.91;5088166;28;20071;-62
2022/04/10 10:09:25;;;;;;;5.95;2.30;;;;;;;11.47;44.14;102066.34;5077565;28;20025;-62
2022/04/10 10:11:51;;;;;;;5.07;2.03;;;;;;;11.49;43.96;102070.59;5074669;28;20031;-62
2022/04/10 10:14:16;;;;;;;5.07;1.95;;;;;;;11.41;43.76;102065.34;5081363;28;20016;-62
2022/04/10 10:16:43;;;;;;;7.60;2.58;;;;;;;11.33;43.57;102062.88;5089974;28;20555;-62
2022/04/10 10:19:09;;;;;;;7.13;2.58;;;;;;;11.24;43.26;102062.31;5074432;28;20028;-62
2022/04/10 10:21:36;;;;;;;9.38;2.22;;;;;;;11.25;43.99;102060.38;5072897;28;20392;-62
2022/04/10 10:24:03;;;;;;;3.83;2.10;;;;;;;11.19;44.47;102062.13;5073943;28;20035;-62
2022/04/10 10:26:45;;;;;;;6.60;2.50;;;;;;;11.17;45.06;102066.22;5089055;28;20032;-62
2022/04/10 10:29:25;;;;;;;6.95;2.45;;;;;;;11.16;45.29;102067.28;5093743;28;20028;-63
2022/04/10 10:32:17;;;;;;;5.93;2.50;;;;;;;11.21;44.78;102054.41;5077748;28;20110;-62
2022/04/10 10:34:50;;;;;;;7.13;2.42;;;;;;;11.22;44.28;102060.81;5093906;28;20501;-61
2022/04/10 10:37:16;;;;;;;8.38;2.63;;;;;;;11.26;44.43;102056.50;5092853;28;20028;-62
2022/04/10 10:39:46;;;;;;;7.20;2.50;;;;;;;11.36;43.39;102050.41;5093370;28;20107;-62
2022/04/10 10:42:12;;;;;;;6.95;2.20;;;;;;;11.28;42.15;102049.66;5093604;28;20086;-62
2022/04/10 10:44:39;;;;;;;3.58;1.98;;;;;;;11.42;43.01;102055.06;5082610;28;20039;-62
2022/04/10 10:47:04;;;;;;;5.38;1.83;;;;;;;11.53;42.53;102057.09;5083029;28;20035;-62
2022/04/10 10:49:32;;;;;;;4.70;2.40;;;;;;;11.63;43.52;102056.56;5089317;28;20208;-63
2022/04/10 10:51:58;;;;;;;6.82;1.95;;;;;;;11.74;42.37;102056.63;5078042;28;20033;-63
2022/04/10 10:54:32;;;;;;;6.63;1.92;;;;;;;11.76;41.93;102050.84;5085227;28;20048;-63
2022/04/10 10:56:57;;;;;;;7.85;2.13;;;;;;;11.85;41.70;102049.47;5088606;28;20089;-64
2022/04/10 10:59:35;;;;;;;6.30;2.40;;;;;;;11.79;42.90;102050.41;5092584;28;20023;-64
2022/04/10 11:02:14;;;;;;;8.43;1.90;;;;;;;11.64;42.08;102055.50;5089708;28;20035;-63
2022/04/10 11:04:50;;;;;;;3.60;2.05;;;;;;;11.68;42.38;102053.94;5077643;28;20029;-64
2022/04/10 11:07:24;;;;;;;4.10;1.98;;;;;;;11.79;42.48;102045.69;5084099;28;20047;-63
2022/04/10 11:09:59;;;;;;;6.47;2.20;;;;;;;11.90;42.05;102046.00;5087379;28;20024;-65
2022/04/10 11:12:33;;;;;;;6.63;2.25;;;;;;;12.03;42.59;102045.84;5077211;28;21870;-65
2022/04/10 11:15:03;;;;;;;5.90;2.10;;;;;;;12.13;42.39;102050.84;5092057;28;20111;-64
2022/04/10 11:17:32;;;;;;;7.05;2.25;;;;;;;12.10;41.57;102057.72;5074179;28;20116;-63
2022/04/10 11:20:04;;;;;;;4.07;2.35;;;;;;;12.00;41.95;102052.72;5072503;28;20031;-64
2022/04/10 11:22:40;;;;;;;6.00;2.03;;;;;;;11.94;41.55;102052.78;5080972;28;20028;-64
2022/04/10 11:25:07;;;;;;;4.13;2.03;;;;;;;11.77;40.82;102055.31;5091819;28;20024;-64
2022/04/10 11:27:44;;;;;;;8.63;2.22;;;;;;;11.71;41.28;102046.00;5083490;28;20028;-65
2022/04/10 11:30:15;;;;;;;4.78;2.13;;;;;;;11.68;40.84;102045.59;5086118;28;20062;-63